Shurei 2 — JD4209 — position and weather

sailwx.info

Track history (hours):
 
Tides and Currents Weather Stations Pressure Air Temp Water Temp Dewpoint Dewpoint Depression Visibility Wind Speed Wind Dir Waves Ship Positions

Shurei 2

Last reported at 2018-Feb-19 07:15 UTC. Time now 2018-Feb-19 08:06 UTC.
Position N 33°38' E 135°14'.

Length 182 m; draft 6.6 m.

Type: Cargo ship. MMSI: 431010021.

Date/timePositionNaut miles runAvg speedWind from/ knotsBaromVisibWave heightAir tempDewpointWater temp
2018-Feb-19 07:15N 33°38' E 135°14'519.6
2018-Feb-19 07:00N 33°42' E 135°11'1019.3
2018-Feb-19 06:30N 33°49' E 135°03'1019.2
2018-Feb-19 06:00N 33°57' E 134°57'1019.5
2018-Feb-19 05:30N 34°07' E 134°57'1019.9
2018-Feb-19 05:00N 34°17' E 134°59'918.4
2018-Feb-19 04:30N 34°25' E 135°04'1019.1
2018-Feb-19 04:00N 34°31' E 135°12'917.8
2018-Feb-19 03:30N 34°37' E 135°21'4 7.1
2018-Feb-19 02:58N 34°37' E 135°26'0 0.0
2018-Feb-19 02:25N 34°37' E 135°26'0 0.0
2018-Feb-19 01:58N 34°37' E 135°26'0 0.0
2018-Feb-19 01:28N 34°37' E 135°26'0 0.0
2018-Feb-19 00:58N 34°37' E 135°26'0 0.0
2018-Feb-19 00:28N 34°37' E 135°26'0 0.0
2018-Feb-18 23:58N 34°37' E 135°26'0 0.0
2018-Feb-18 23:28N 34°37' E 135°26'0 0.7
2018-Feb-18 23:00N 34°37' E 135°25'510.6
2018-Feb-18 22:31N 34°35' E 135°19'1019.8
2018-Feb-18 22:00N 34°28' E 135°11'1019.8
2018-Feb-18 21:30N 34°21' E 135°02'918.4
2018-Feb-18 21:00N 34°12' E 134°60'1019.6
2018-Feb-18 20:31N 34°03' E 134°57'1019.9
2018-Feb-18 20:00N 33°53' E 134°55'2119.4
2018-Feb-18 18:57N 33°35' E 134°43'  
2018-Feb-15 22:39N 32°23' E 132°32'416.8
2018-Feb-15 22:24N 32°25' E 132°37'817.1
2018-Feb-15 21:56N 32°29' E 132°45'12319.0
2018-Feb-15 15:27N 33°42' E 134°44'1020.7
2018-Feb-15 14:59N 33°49' E 134°51'1020.2
2018-Feb-15 14:30N 33°59' E 134°54'1020.3
2018-Feb-15 14:01N 34°09' E 134°56'1020.1
2018-Feb-15 13:31N 34°18' E 134°59'1019.1
2018-Feb-15 13:01N 34°26' E 135°06'1019.7
2018-Feb-15 12:30N 34°33' E 135°15'817.0
2018-Feb-15 12:00N 34°38' E 135°23'2 4.4
2018-Feb-15 11:30N 34°37' E 135°26'0 0.0
2018-Feb-15 11:00N 34°37' E 135°26'0 0.0
2018-Feb-15 10:30N 34°37' E 135°26'0 0.0
2018-Feb-15 10:00N 34°37' E 135°26'0 0.0
2018-Feb-15 09:30N 34°37' E 135°26'0 0.0
2018-Feb-15 09:00N 34°37' E 135°26'0 0.0
2018-Feb-15 08:30N 34°37' E 135°26'0 0.0
2018-Feb-15 08:00N 34°37' E 135°26'0 0.0
2018-Feb-15 07:30N 34°37' E 135°26'0 0.0
2018-Feb-15 07:00N 34°37' E 135°26'0 0.0
2018-Feb-15 06:24N 34°37' E 135°26'0 0.0
2018-Feb-15 06:00N 34°37' E 135°26'2 4.4
2018-Feb-15 05:30N 34°38' E 135°23'816.5
2018-Feb-15 05:01N 34°32' E 135°16'1019.4
2018-Feb-15 04:31N 34°25' E 135°08'918.7
2018-Feb-15 04:00N 34°18' E 135°00'918.5
2018-Feb-15 03:31N 34°09' E 135°00'1019.6
2018-Feb-15 03:00N 33°59' E 134°58'816.8
2018-Feb-15 02:31N 33°51' E 134°57'1220.1
2018-Feb-15 01:55N 33°42' E 135°07'14418.5
2018-Feb-14 18:08N 34°09' E 137°58'719.7
2018-Feb-14 17:48N 34°11' E 138°05'719.7
2018-Feb-14 17:28N 34°14' E 138°12'1419.0
2018-Feb-14 16:44N 34°20' E 138°28'418.6
2018-Feb-14 16:30N 34°22' E 138°33'1018.0
2018-Feb-14 15:58N 34°26' E 138°43'917.7
2018-Feb-14 15:29N 34°29' E 138°53'817.3
2018-Feb-14 15:00N 34°33' E 139°02'817.3
2018-Feb-14 14:31N 34°40' E 139°08'917.5
2018-Feb-14 14:00N 34°47' E 139°14'816.4
2018-Feb-14 13:30N 34°53' E 139°21'816.4
2018-Feb-14 13:01N 34°58' E 139°29'917.4
2018-Feb-14 12:30N 35°03' E 139°38'918.0
2018-Feb-14 12:00N 35°09' E 139°45'612.4
2018-Feb-14 11:30N 35°16' E 139°46'612.3
2018-Feb-14 11:01N 35°21' E 139°42'714.9
2018-Feb-14 10:30N 35°27' E 139°47'815.6
2018-Feb-14 10:01N 35°34' E 139°52'5 7.6
2018-Feb-14 09:18N 35°37' E 139°47'0 0.0
2018-Feb-14 09:00N 35°37' E 139°47'0 0.0
2018-Feb-14 08:30N 35°37' E 139°47'0 0.0
2018-Feb-14 07:57N 35°37' E 139°47'0 0.0
2018-Feb-14 07:12N 35°37' E 139°47'0 0.0
2018-Feb-14 05:48N 35°37' E 139°47'0 0.0
2018-Feb-14 05:30N 35°37' E 139°47'0 0.0
2018-Feb-14 04:57N 35°37' E 139°47'0 0.0
2018-Feb-14 04:18N 35°37' E 139°47'0 0.0
2018-Feb-14 03:48N 35°37' E 139°47'0 0.0
2018-Feb-14 03:30N 35°37' E 139°47'0 0.0
2018-Feb-14 02:49N 35°37' E 139°47'0 0.0
2018-Feb-14 02:21N 35°37' E 139°47'0 0.0
2018-Feb-14 02:00N 35°37' E 139°47'0 0.0
2018-Feb-14 00:54N 35°37' E 139°47'0 0.0
2018-Feb-14 00:30N 35°37' E 139°47'0 0.0
2018-Feb-13 23:57N 35°37' E 139°47'0 0.0
2018-Feb-13 23:18N 35°37' E 139°47'0 0.0
2018-Feb-13 22:51N 35°37' E 139°47'0 0.0
2018-Feb-13 22:30N 35°37' E 139°47'0 0.0
2018-Feb-13 21:00N 35°37' E 139°47'0 0.0
2018-Feb-13 19:42N 35°37' E 139°47'0 0.0
2018-Feb-13 19:30N 35°37' E 139°47'0 0.0
2018-Feb-13 18:24N 35°37' E 139°47'0 0.0
2018-Feb-13 17:54N 35°37' E 139°47'0 0.0
2018-Feb-13 17:30N 35°37' E 139°47'0 0.0
2018-Feb-13 17:00N 35°37' E 139°47'0 0.0
2018-Feb-13 16:30N 35°37' E 139°47'0 0.0
2018-Feb-13 16:00N 35°37' E 139°47'0 0.0
2018-Feb-13 15:30N 35°37' E 139°47'0 0.0
2018-Feb-13 14:57N 35°37' E 139°47'0 0.0
2018-Feb-13 14:24N 35°37' E 139°47'0 0.0
2018-Feb-13 14:00N 35°37' E 139°47'0 0.0
2018-Feb-13 13:29N 35°37' E 139°47'0 0.0
2018-Feb-13 12:54N 35°37' E 139°47'0 0.0
2018-Feb-13 12:26N 35°37' E 139°47'0 0.0
2018-Feb-13 11:59N 35°37' E 139°47'0 0.0
2018-Feb-13 11:26N 35°37' E 139°47'0 0.0
2018-Feb-13 10:56N 35°37' E 139°47'0 0.0
2018-Feb-13 10:14N 35°37' E 139°47'0 0.0
2018-Feb-13 09:56N 35°37' E 139°47'0 0.0
2018-Feb-13 09:26N 35°37' E 139°47'0 0.0
2018-Feb-13 08:56N 35°37' E 139°47'0 0.0
2018-Feb-13 08:26N 35°37' E 139°47'0 0.0
2018-Feb-13 07:53N 35°37' E 139°47'0 0.0
2018-Feb-13 07:29N 35°37' E 139°47'0 0.0
2018-Feb-13 06:32N 35°37' E 139°47'0 0.0
2018-Feb-13 06:26N 35°37' E 139°47'0 0.0
2018-Feb-13 05:59N 35°37' E 139°47'0 0.0
2018-Feb-13 05:23N 35°37' E 139°47'0 0.0
2018-Feb-13 04:56N 35°37' E 139°47'0 0.0
2018-Feb-13 04:26N 35°37' E 139°47'0 0.0
2018-Feb-13 03:47N 35°37' E 139°47'0 0.0
2018-Feb-13 03:29N 35°37' E 139°47'0 0.0
2018-Feb-13 02:53N 35°37' E 139°47'0 0.0
2018-Feb-13 02:29N 35°37' E 139°47'0 0.0
2018-Feb-13 01:44N 35°37' E 139°47'0 0.0
2018-Feb-13 01:23N 35°37' E 139°47'0 0.0
2018-Feb-13 00:50N 35°37' E 139°47'0 0.0
2018-Feb-13 00:23N 35°37' E 139°47'0 0.0
2018-Feb-13 00:00N 35°37' E 139°47'1 2.2
2018-Feb-12 23:30N 35°37' E 139°48'713.2
2018-Feb-12 23:00N 35°31' E 139°52'816.5
2018-Feb-12 22:31N 35°24' E 139°47'612.7
2018-Feb-12 22:00N 35°18' E 139°44'612.5
2018-Feb-12 21:30N 35°12' E 139°47'917.8
2018-Feb-12 21:00N 35°04' E 139°45'918.9
2018-Feb-12 20:30N 34°58' E 139°36'1020.4
2018-Feb-12 20:00N 34°52' E 139°26'1019.9
2018-Feb-12 19:30N 34°45' E 139°17'1020.3
2018-Feb-12 19:00N 34°37' E 139°10'1020.5
2018-Feb-12 18:30N 34°29' E 139°02'1120.2
2018-Feb-12 17:59N 34°23' E 138°51'1120.6
2018-Feb-12 17:25N 34°19' E 138°38'920.5
2018-Feb-12 16:58N 34°15' E 138°28'920.0
2018-Feb-12 16:30N 34°11' E 138°18'1119.3
2018-Feb-12 15:57N 34°06' E 138°06'13917.6
2018-Feb-12 08:03N 33°29' E 135°26'119.9
2018-Feb-12 08:00N 33°29' E 135°25'1119.0
2018-Feb-12 07:26N 33°36' E 135°15'819.4
2018-Feb-12 07:00N 33°43' E 135°09'1019.8
2018-Feb-12 06:30N 33°50' E 135°01'1019.6
2018-Feb-12 06:00N 33°60' E 134°58'1020.0
2018-Feb-12 05:31N 34°10' E 134°59'1020.4
2018-Feb-12 05:00N 34°20' E 134°60'1019.3
2018-Feb-12 04:30N 34°27' E 135°07'1019.1
2018-Feb-12 04:00N 34°34' E 135°16'714.9
2018-Feb-12 03:30N 34°38' E 135°24'2 3.0
2018-Feb-12 03:00N 34°37' E 135°26'0 0.0
2018-Feb-12 02:30N 34°37' E 135°26'0 0.0
2018-Feb-12 02:00N 34°37' E 135°26'0 0.0
2018-Feb-12 01:30N 34°37' E 135°26'0 0.0
2018-Feb-12 01:00N 34°37' E 135°26'0 0.0
2018-Feb-12 00:30N 34°37' E 135°26'0 0.0
2018-Feb-11 23:57N 34°37' E 135°26'0 0.5
2018-Feb-11 23:30N 34°37' E 135°25'4 8.1
2018-Feb-11 23:01N 34°36' E 135°21'917.8
2018-Feb-11 22:30N 34°30' E 135°13'1019.9
2018-Feb-11 22:01N 34°23' E 135°05'1019.6
2018-Feb-11 21:31N 34°14' E 134°59'1019.1
2018-Feb-11 21:01N 34°05' E 134°57'918.5
2018-Feb-11 20:30N 33°56' E 134°55'918.5
2018-Feb-11 20:00N 33°46' E 134°54'  
Track history (hours):
 
Tides and Currents Weather Stations Pressure Air Temp Water Temp Dewpoint Dewpoint Depression Visibility Wind Speed Wind Dir Waves Ship Positions

Shurei 2

Last reported at 2018-Feb-19 07:15 UTC. Time now 2018-Feb-19 08:06 UTC.
Position N 33°38' E 135°14'.

Length 182 m; draft 6.6 m.

Type: Cargo ship. MMSI: 431010021.

Date/timePositionNaut miles runAvg speedWind from/ knotsBaromVisibWave heightAir tempDewpointWater temp
2018-Feb-19 07:15N 33°38' E 135°14'519.6
2018-Feb-19 07:00N 33°42' E 135°11'1019.3
2018-Feb-19 06:30N 33°49' E 135°03'1019.2
2018-Feb-19 06:00N 33°57' E 134°57'1019.5
2018-Feb-19 05:30N 34°07' E 134°57'1019.9
2018-Feb-19 05:00N 34°17' E 134°59'918.4
2018-Feb-19 04:30N 34°25' E 135°04'1019.1
2018-Feb-19 04:00N 34°31' E 135°12'917.8
2018-Feb-19 03:30N 34°37' E 135°21'4 7.1
2018-Feb-19 02:58N 34°37' E 135°26'0 0.0
2018-Feb-19 02:25N 34°37' E 135°26'0 0.0
2018-Feb-19 01:58N 34°37' E 135°26'0 0.0
2018-Feb-19 01:28N 34°37' E 135°26'0 0.0
2018-Feb-19 00:58N 34°37' E 135°26'0 0.0
2018-Feb-19 00:28N 34°37' E 135°26'0 0.0
2018-Feb-18 23:58N 34°37' E 135°26'0 0.0
2018-Feb-18 23:28N 34°37' E 135°26'0 0.7
2018-Feb-18 23:00N 34°37' E 135°25'510.6
2018-Feb-18 22:31N 34°35' E 135°19'1019.8
2018-Feb-18 22:00N 34°28' E 135°11'1019.8
2018-Feb-18 21:30N 34°21' E 135°02'918.4
2018-Feb-18 21:00N 34°12' E 134°60'1019.6
2018-Feb-18 20:31N 34°03' E 134°57'1019.9
2018-Feb-18 20:00N 33°53' E 134°55'2119.4
2018-Feb-18 18:57N 33°35' E 134°43'  
2018-Feb-15 22:39N 32°23' E 132°32'416.8
2018-Feb-15 22:24N 32°25' E 132°37'817.1
2018-Feb-15 21:56N 32°29' E 132°45'12319.0
2018-Feb-15 15:27N 33°42' E 134°44'1020.7
2018-Feb-15 14:59N 33°49' E 134°51'1020.2
2018-Feb-15 14:30N 33°59' E 134°54'1020.3
2018-Feb-15 14:01N 34°09' E 134°56'1020.1
2018-Feb-15 13:31N 34°18' E 134°59'1019.1
2018-Feb-15 13:01N 34°26' E 135°06'1019.7
2018-Feb-15 12:30N 34°33' E 135°15'817.0
2018-Feb-15 12:00N 34°38' E 135°23'2 4.4
2018-Feb-15 11:30N 34°37' E 135°26'0 0.0
2018-Feb-15 11:00N 34°37' E 135°26'0 0.0
2018-Feb-15 10:30N 34°37' E 135°26'0 0.0
2018-Feb-15 10:00N 34°37' E 135°26'0 0.0
2018-Feb-15 09:30N 34°37' E 135°26'0 0.0
2018-Feb-15 09:00N 34°37' E 135°26'0 0.0
2018-Feb-15 08:30N 34°37' E 135°26'0 0.0
2018-Feb-15 08:00N 34°37' E 135°26'0 0.0
2018-Feb-15 07:30N 34°37' E 135°26'0 0.0
2018-Feb-15 07:00N 34°37' E 135°26'0 0.0
2018-Feb-15 06:24N 34°37' E 135°26'0 0.0
2018-Feb-15 06:00N 34°37' E 135°26'2 4.4
2018-Feb-15 05:30N 34°38' E 135°23'816.5
2018-Feb-15 05:01N 34°32' E 135°16'1019.4
2018-Feb-15 04:31N 34°25' E 135°08'918.7
2018-Feb-15 04:00N 34°18' E 135°00'918.5
2018-Feb-15 03:31N 34°09' E 135°00'1019.6
2018-Feb-15 03:00N 33°59' E 134°58'816.8
2018-Feb-15 02:31N 33°51' E 134°57'1220.1
2018-Feb-15 01:55N 33°42' E 135°07'14418.5
2018-Feb-14 18:08N 34°09' E 137°58'719.7
2018-Feb-14 17:48N 34°11' E 138°05'719.7
2018-Feb-14 17:28N 34°14' E 138°12'1419.0
2018-Feb-14 16:44N 34°20' E 138°28'418.6
2018-Feb-14 16:30N 34°22' E 138°33'1018.0
2018-Feb-14 15:58N 34°26' E 138°43'917.7
2018-Feb-14 15:29N 34°29' E 138°53'817.3
2018-Feb-14 15:00N 34°33' E 139°02'817.3
2018-Feb-14 14:31N 34°40' E 139°08'917.5
2018-Feb-14 14:00N 34°47' E 139°14'816.4
2018-Feb-14 13:30N 34°53' E 139°21'816.4
2018-Feb-14 13:01N 34°58' E 139°29'917.4
2018-Feb-14 12:30N 35°03' E 139°38'918.0
2018-Feb-14 12:00N 35°09' E 139°45'612.4
2018-Feb-14 11:30N 35°16' E 139°46'612.3
2018-Feb-14 11:01N 35°21' E 139°42'714.9
2018-Feb-14 10:30N 35°27' E 139°47'815.6
2018-Feb-14 10:01N 35°34' E 139°52'5 7.6
2018-Feb-14 09:18N 35°37' E 139°47'0 0.0
2018-Feb-14 09:00N 35°37' E 139°47'0 0.0
2018-Feb-14 08:30N 35°37' E 139°47'0 0.0
2018-Feb-14 07:57N 35°37' E 139°47'0 0.0
2018-Feb-14 07:12N 35°37' E 139°47'0 0.0
2018-Feb-14 05:48N 35°37' E 139°47'0 0.0
2018-Feb-14 05:30N 35°37' E 139°47'0 0.0
2018-Feb-14 04:57N 35°37' E 139°47'0 0.0
2018-Feb-14 04:18N 35°37' E 139°47'0 0.0
2018-Feb-14 03:48N 35°37' E 139°47'0 0.0
2018-Feb-14 03:30N 35°37' E 139°47'0 0.0
2018-Feb-14 02:49N 35°37' E 139°47'0 0.0
2018-Feb-14 02:21N 35°37' E 139°47'0 0.0
2018-Feb-14 02:00N 35°37' E 139°47'0 0.0
2018-Feb-14 00:54N 35°37' E 139°47'0 0.0
2018-Feb-14 00:30N 35°37' E 139°47'0 0.0
2018-Feb-13 23:57N 35°37' E 139°47'0 0.0
2018-Feb-13 23:18N 35°37' E 139°47'0 0.0
2018-Feb-13 22:51N 35°37' E 139°47'0 0.0
2018-Feb-13 22:30N 35°37' E 139°47'0 0.0
2018-Feb-13 21:00N 35°37' E 139°47'0 0.0
2018-Feb-13 19:42N 35°37' E 139°47'0 0.0
2018-Feb-13 19:30N 35°37' E 139°47'0 0.0
2018-Feb-13 18:24N 35°37' E 139°47'0 0.0
2018-Feb-13 17:54N 35°37' E 139°47'0 0.0
2018-Feb-13 17:30N 35°37' E 139°47'0 0.0
2018-Feb-13 17:00N 35°37' E 139°47'0 0.0
2018-Feb-13 16:30N 35°37' E 139°47'0 0.0
2018-Feb-13 16:00N 35°37' E 139°47'0 0.0
2018-Feb-13 15:30N 35°37' E 139°47'0 0.0
2018-Feb-13 14:57N 35°37' E 139°47'0 0.0
2018-Feb-13 14:24N 35°37' E 139°47'0 0.0
2018-Feb-13 14:00N 35°37' E 139°47'0 0.0
2018-Feb-13 13:29N 35°37' E 139°47'0 0.0
2018-Feb-13 12:54N 35°37' E 139°47'0 0.0
2018-Feb-13 12:26N 35°37' E 139°47'0 0.0
2018-Feb-13 11:59N 35°37' E 139°47'0 0.0
2018-Feb-13 11:26N 35°37' E 139°47'0 0.0
2018-Feb-13 10:56N 35°37' E 139°47'0 0.0
2018-Feb-13 10:14N 35°37' E 139°47'0 0.0
2018-Feb-13 09:56N 35°37' E 139°47'0 0.0
2018-Feb-13 09:26N 35°37' E 139°47'0 0.0
2018-Feb-13 08:56N 35°37' E 139°47'0 0.0
2018-Feb-13 08:26N 35°37' E 139°47'0 0.0
2018-Feb-13 07:53N 35°37' E 139°47'0 0.0
2018-Feb-13 07:29N 35°37' E 139°47'0 0.0
2018-Feb-13 06:32N 35°37' E 139°47'0 0.0
2018-Feb-13 06:26N 35°37' E 139°47'0 0.0
2018-Feb-13 05:59N 35°37' E 139°47'0 0.0
2018-Feb-13 05:23N 35°37' E 139°47'0 0.0
2018-Feb-13 04:56N 35°37' E 139°47'0 0.0
2018-Feb-13 04:26N 35°37' E 139°47'0 0.0
2018-Feb-13 03:47N 35°37' E 139°47'0 0.0
2018-Feb-13 03:29N 35°37' E 139°47'0 0.0
2018-Feb-13 02:53N 35°37' E 139°47'0 0.0
2018-Feb-13 02:29N 35°37' E 139°47'0 0.0
2018-Feb-13 01:44N 35°37' E 139°47'0 0.0
2018-Feb-13 01:23N 35°37' E 139°47'0 0.0
2018-Feb-13 00:50N 35°37' E 139°47'0 0.0
2018-Feb-13 00:23N 35°37' E 139°47'0 0.0
2018-Feb-13 00:00N 35°37' E 139°47'1 2.2
2018-Feb-12 23:30N 35°37' E 139°48'713.2
2018-Feb-12 23:00N 35°31' E 139°52'816.5
2018-Feb-12 22:31N 35°24' E 139°47'612.7
2018-Feb-12 22:00N 35°18' E 139°44'612.5
2018-Feb-12 21:30N 35°12' E 139°47'917.8
2018-Feb-12 21:00N 35°04' E 139°45'918.9
2018-Feb-12 20:30N 34°58' E 139°36'1020.4
2018-Feb-12 20:00N 34°52' E 139°26'1019.9
2018-Feb-12 19:30N 34°45' E 139°17'1020.3
2018-Feb-12 19:00N 34°37' E 139°10'1020.5
2018-Feb-12 18:30N 34°29' E 139°02'1120.2
2018-Feb-12 17:59N 34°23' E 138°51'1120.6
2018-Feb-12 17:25N 34°19' E 138°38'920.5
2018-Feb-12 16:58N 34°15' E 138°28'920.0
2018-Feb-12 16:30N 34°11' E 138°18'1119.3
2018-Feb-12 15:57N 34°06' E 138°06'13917.6
2018-Feb-12 08:03N 33°29' E 135°26'119.9
2018-Feb-12 08:00N 33°29' E 135°25'1119.0
2018-Feb-12 07:26N 33°36' E 135°15'819.4
2018-Feb-12 07:00N 33°43' E 135°09'1019.8
2018-Feb-12 06:30N 33°50' E 135°01'1019.6
2018-Feb-12 06:00N 33°60' E 134°58'1020.0
2018-Feb-12 05:31N 34°10' E 134°59'1020.4
2018-Feb-12 05:00N 34°20' E 134°60'1019.3
2018-Feb-12 04:30N 34°27' E 135°07'1019.1
2018-Feb-12 04:00N 34°34' E 135°16'714.9
2018-Feb-12 03:30N 34°38' E 135°24'2 3.0
2018-Feb-12 03:00N 34°37' E 135°26'0 0.0
2018-Feb-12 02:30N 34°37' E 135°26'0 0.0
2018-Feb-12 02:00N 34°37' E 135°26'0 0.0
2018-Feb-12 01:30N 34°37' E 135°26'0 0.0
2018-Feb-12 01:00N 34°37' E 135°26'0 0.0
2018-Feb-12 00:30N 34°37' E 135°26'0 0.0
2018-Feb-11 23:57N 34°37' E 135°26'0 0.5
2018-Feb-11 23:30N 34°37' E 135°25'4 8.1
2018-Feb-11 23:01N 34°36' E 135°21'917.8
2018-Feb-11 22:30N 34°30' E 135°13'1019.9
2018-Feb-11 22:01N 34°23' E 135°05'1019.6
2018-Feb-11 21:31N 34°14' E 134°59'1019.1
2018-Feb-11 21:01N 34°05' E 134°57'918.5
2018-Feb-11 20:30N 33°56' E 134°55'918.5
2018-Feb-11 20:00N 33°46' E 134°54'  

Dump ship's entire track history